sensor_id;sensor_type;location;lat;lon;timestamp;P1;durP1;ratioP1;P2;durP2;ratioP2
1024;SDS011;501;48.214;11.350;2022-10-15T00:00:48;2.27;;;1.50;;
1024;SDS011;501;48.214;11.350;2022-10-15T00:03:14;2.47;;;1.80;;
1024;SDS011;501;48.214;11.350;2022-10-15T00:05:40;2.23;;;1.57;;
1024;SDS011;501;48.214;11.350;2022-10-15T00:08:07;2.27;;;2.00;;
1024;SDS011;501;48.214;11.350;2022-10-15T00:10:34;2.83;;;2.10;;
1024;SDS011;501;48.214;11.350;2022-10-15T00:13:01;1.23;;;1.13;;
1024;SDS011;501;48.214;11.350;2022-10-15T00:15:27;1.83;;;1.17;;
1024;SDS011;501;48.214;11.350;2022-10-15T00:17:53;2.93;;;1.33;;
1024;SDS011;501;48.214;11.350;2022-10-15T00:20:19;1.47;;;1.37;;
1024;SDS011;501;48.214;11.350;2022-10-15T00:22:45;1.30;;;1.20;;
1024;SDS011;501;48.214;11.350;2022-10-15T00:25:10;4.10;;;1.70;;
1024;SDS011;501;48.214;11.350;2022-10-15T00:27:36;1.20;;;1.10;;
1024;SDS011;501;48.214;11.350;2022-10-15T00:30:02;2.40;;;1.27;;
1024;SDS011;501;48.214;11.350;2022-10-15T00:32:29;1.70;;;1.10;;
1024;SDS011;501;48.214;11.350;2022-10-15T00:34:55;2.47;;;1.17;;
1024;SDS011;501;48.214;11.350;2022-10-15T00:37:21;2.20;;;1.50;;
1024;SDS011;501;48.214;11.350;2022-10-15T00:39:46;1.27;;;0.90;;
1024;SDS011;501;48.214;11.350;2022-10-15T00:42:12;1.57;;;1.20;;
1024;SDS011;501;48.214;11.350;2022-10-15T00:47:39;1.37;;;1.03;;
1024;SDS011;501;48.214;11.350;2022-10-15T00:50:09;2.60;;;1.30;;
1024;SDS011;501;48.214;11.350;2022-10-15T00:57:57;4.60;;;1.40;;
1024;SDS011;501;48.214;11.350;2022-10-15T01:00:26;1.27;;;1.17;;
1024;SDS011;501;48.214;11.350;2022-10-15T01:02:53;2.00;;;1.10;;
1024;SDS011;501;48.214;11.350;2022-10-15T01:05:18;0.80;;;0.80;;
1024;SDS011;501;48.214;11.350;2022-10-15T01:07:45;1.30;;;1.20;;
1024;SDS011;501;48.214;11.350;2022-10-15T01:10:10;1.13;;;1.00;;
1024;SDS011;501;48.214;11.350;2022-10-15T01:15:14;1.70;;;1.40;;
1024;SDS011;501;48.214;11.350;2022-10-15T01:18:13;0.97;;;0.87;;
1024;SDS011;501;48.214;11.350;2022-10-15T01:28:55;1.13;;;1.03;;
1024;SDS011;501;48.214;11.350;2022-10-15T01:31:36;2.10;;;1.27;;
1024;SDS011;501;48.214;11.350;2022-10-15T01:34:19;0.83;;;0.83;;
1024;SDS011;501;48.214;11.350;2022-10-15T01:39:38;1.63;;;1.03;;
1024;SDS011;501;48.214;11.350;2022-10-15T01:44:41;1.27;;;0.80;;
1024;SDS011;501;48.214;11.350;2022-10-15T01:49:54;1.27;;;0.80;;
1024;SDS011;501;48.214;11.350;2022-10-15T01:52:22;1.00;;;1.00;;
1024;SDS011;501;48.214;11.350;2022-10-15T01:54:51;1.23;;;0.90;;
1024;SDS011;501;48.214;11.350;2022-10-15T01:57:18;1.00;;;0.90;;
1024;SDS011;501;48.214;11.350;2022-10-15T01:59:46;7.80;;;1.10;;
1024;SDS011;501;48.214;11.350;2022-10-15T02:02:11;0.50;;;0.50;;
1024;SDS011;501;48.214;11.350;2022-10-15T02:04:38;1.60;;;0.67;;
1024;SDS011;501;48.214;11.350;2022-10-15T02:15:56;1.30;;;0.83;;
1024;SDS011;501;48.214;11.350;2022-10-15T02:21:11;1.90;;;0.73;;
1024;SDS011;501;48.214;11.350;2022-10-15T02:24:03;1.23;;;0.90;;
1024;SDS011;501;48.214;11.350;2022-10-15T02:26:35;0.60;;;0.60;;
1024;SDS011;501;48.214;11.350;2022-10-15T02:29:02;0.87;;;0.87;;
1024;SDS011;501;48.214;11.350;2022-10-15T02:31:31;0.80;;;0.70;;
1024;SDS011;501;48.214;11.350;2022-10-15T02:34:03;1.60;;;0.50;;
1024;SDS011;501;48.214;11.350;2022-10-15T02:36:32;2.00;;;0.80;;
1024;SDS011;501;48.214;11.350;2022-10-15T02:38:58;0.50;;;0.40;;
1024;SDS011;501;48.214;11.350;2022-10-15T02:41:29;1.20;;;0.57;;
1024;SDS011;501;48.214;11.350;2022-10-15T02:43:57;4.73;;;0.90;;
1024;SDS011;501;48.214;11.350;2022-10-15T02:46:23;0.60;;;0.53;;
1024;SDS011;501;48.214;11.350;2022-10-15T02:48:48;1.13;;;0.50;;
1024;SDS011;501;48.214;11.350;2022-10-15T02:51:14;0.83;;;0.57;;
1024;SDS011;501;48.214;11.350;2022-10-15T02:53:39;0.97;;;0.77;;
1024;SDS011;501;48.214;11.350;2022-10-15T02:56:05;1.10;;;0.60;;
1024;SDS011;501;48.214;11.350;2022-10-15T02:58:31;0.73;;;0.70;;
1024;SDS011;501;48.214;11.350;2022-10-15T03:00:56;1.33;;;1.07;;
1024;SDS011;501;48.214;11.350;2022-10-15T03:03:22;2.50;;;0.70;;
1024;SDS011;501;48.214;11.350;2022-10-15T03:05:47;1.20;;;0.60;;
1024;SDS011;501;48.214;11.350;2022-10-15T03:08:13;2.80;;;0.63;;
1024;SDS011;501;48.214;11.350;2022-10-15T03:10:39;0.53;;;0.53;;
1024;SDS011;501;48.214;11.350;2022-10-15T03:13:05;3.40;;;0.67;;
1024;SDS011;501;48.214;11.350;2022-10-15T03:15:30;1.53;;;0.50;;
1024;SDS011;501;48.214;11.350;2022-10-15T03:17:57;1.40;;;0.60;;
1024;SDS011;501;48.214;11.350;2022-10-15T03:20:23;2.67;;;0.57;;
1024;SDS011;501;48.214;11.350;2022-10-15T03:22:48;1.90;;;0.50;;
1024;SDS011;501;48.214;11.350;2022-10-15T03:25:14;0.50;;;0.40;;
1024;SDS011;501;48.214;11.350;2022-10-15T03:27:40;2.60;;;0.77;;
1024;SDS011;501;48.214;11.350;2022-10-15T03:30:06;0.40;;;0.40;;
1024;SDS011;501;48.214;11.350;2022-10-15T03:32:32;0.50;;;0.33;;
1024;SDS011;501;48.214;11.350;2022-10-15T03:34:58;0.80;;;0.47;;
1024;SDS011;501;48.214;11.350;2022-10-15T03:37:23;0.40;;;0.40;;
1024;SDS011;501;48.214;11.350;2022-10-15T03:39:49;1.23;;;0.60;;
1024;SDS011;501;48.214;11.350;2022-10-15T03:42:14;0.50;;;0.47;;
1024;SDS011;501;48.214;11.350;2022-10-15T03:44:40;0.40;;;0.40;;
1024;SDS011;501;48.214;11.350;2022-10-15T03:47:05;0.70;;;0.30;;
1024;SDS011;501;48.214;11.350;2022-10-15T03:49:31;0.90;;;0.47;;
1024;SDS011;501;48.214;11.350;2022-10-15T03:51:57;1.57;;;0.60;;
1024;SDS011;501;48.214;11.350;2022-10-15T03:54:23;3.67;;;0.70;;
1024;SDS011;501;48.214;11.350;2022-10-15T03:56:48;0.60;;;0.40;;
1024;SDS011;501;48.214;11.350;2022-10-15T03:59:14;0.53;;;0.40;;
1024;SDS011;501;48.214;11.350;2022-10-15T04:01:40;1.93;;;0.40;;
1024;SDS011;501;48.214;11.350;2022-10-15T04:04:07;1.07;;;0.33;;
1024;SDS011;501;48.214;11.350;2022-10-15T04:06:34;0.70;;;0.50;;
1024;SDS011;501;48.214;11.350;2022-10-15T04:08:59;0.47;;;0.33;;
1024;SDS011;501;48.214;11.350;2022-10-15T04:11:25;2.97;;;0.60;;
1024;SDS011;501;48.214;11.350;2022-10-15T04:13:51;1.33;;;0.30;;
1024;SDS011;501;48.214;11.350;2022-10-15T04:16:16;1.50;;;0.30;;
1024;SDS011;501;48.214;11.350;2022-10-15T04:18:42;0.47;;;0.30;;
1024;SDS011;501;48.214;11.350;2022-10-15T04:21:07;1.07;;;0.37;;
1024;SDS011;501;48.214;11.350;2022-10-15T04:23:33;0.57;;;0.57;;
1024;SDS011;501;48.214;11.350;2022-10-15T04:25:59;0.60;;;0.30;;
1024;SDS011;501;48.214;11.350;2022-10-15T04:28:25;0.70;;;0.50;;
1024;SDS011;501;48.214;11.350;2022-10-15T04:30:54;0.40;;;0.30;;
1024;SDS011;501;48.214;11.350;2022-10-15T04:33:22;0.37;;;0.33;;
1024;SDS011;501;48.214;11.350;2022-10-15T04:35:56;0.70;;;0.40;;
1024;SDS011;501;48.214;11.350;2022-10-15T04:38:40;0.40;;;0.30;;
1024;SDS011;501;48.214;11.350;2022-10-15T04:41:06;2.30;;;0.50;;
1024;SDS011;501;48.214;11.350;2022-10-15T04:43:33;1.23;;;0.40;;
1024;SDS011;501;48.214;11.350;2022-10-15T04:46:01;0.40;;;0.40;;
1024;SDS011;501;48.214;11.350;2022-10-15T04:48:28;0.40;;;0.30;;
1024;SDS011;501;48.214;11.350;2022-10-15T04:51:17;0.30;;;0.30;;
1024;SDS011;501;48.214;11.350;2022-10-15T04:53:43;0.50;;;0.50;;
1024;SDS011;501;48.214;11.350;2022-10-15T04:56:10;0.73;;;0.60;;
1024;SDS011;501;48.214;11.350;2022-10-15T04:58:39;0.67;;;0.40;;
1024;SDS011;501;48.214;11.350;2022-10-15T05:01:07;0.30;;;0.30;;
1024;SDS011;501;48.214;11.350;2022-10-15T05:03:37;0.50;;;0.30;;
1024;SDS011;501;48.214;11.350;2022-10-15T05:06:05;0.70;;;0.47;;
1024;SDS011;501;48.214;11.350;2022-10-15T05:08:32;0.40;;;0.40;;
1024;SDS011;501;48.214;11.350;2022-10-15T05:11:00;0.87;;;0.40;;
1024;SDS011;501;48.214;11.350;2022-10-15T05:13:29;0.40;;;0.30;;
1024;SDS011;501;48.214;11.350;2022-10-15T05:15:55;0.90;;;0.43;;
1024;SDS011;501;48.214;11.350;2022-10-15T05:18:21;1.00;;;0.30;;
1024;SDS011;501;48.214;11.350;2022-10-15T05:20:47;4.93;;;0.70;;
1024;SDS011;501;48.214;11.350;2022-10-15T05:23:12;1.33;;;1.10;;
1024;SDS011;501;48.214;11.350;2022-10-15T05:25:38;0.87;;;0.87;;
1024;SDS011;501;48.214;11.350;2022-10-15T05:28:04;0.80;;;0.70;;
1024;SDS011;501;48.214;11.350;2022-10-15T05:30:30;0.50;;;0.50;;
1024;SDS011;501;48.214;11.350;2022-10-15T05:32:57;0.93;;;0.80;;
1024;SDS011;501;48.214;11.350;2022-10-15T05:35:23;0.80;;;0.80;;
1024;SDS011;501;48.214;11.350;2022-10-15T05:37:48;3.80;;;0.60;;
1024;SDS011;501;48.214;11.350;2022-10-15T05:40:14;1.60;;;0.60;;
1024;SDS011;501;48.214;11.350;2022-10-15T05:42:40;1.93;;;0.40;;
1024;SDS011;501;48.214;11.350;2022-10-15T05:45:05;0.80;;;0.50;;
1024;SDS011;501;48.214;11.350;2022-10-15T05:47:31;0.67;;;0.60;;
1024;SDS011;501;48.214;11.350;2022-10-15T05:49:57;0.60;;;0.50;;
1024;SDS011;501;48.214;11.350;2022-10-15T05:52:23;0.73;;;0.50;;
1024;SDS011;501;48.214;11.350;2022-10-15T05:54:48;0.40;;;0.30;;
1024;SDS011;501;48.214;11.350;2022-10-15T05:57:14;0.53;;;0.40;;
1024;SDS011;501;48.214;11.350;2022-10-15T05:59:40;18.33;;;1.63;;
1024;SDS011;501;48.214;11.350;2022-10-15T06:02:05;1.03;;;0.50;;
1024;SDS011;501;48.214;11.350;2022-10-15T06:04:32;1.90;;;0.40;;
1024;SDS011;501;48.214;11.350;2022-10-15T06:06:58;0.93;;;0.57;;
1024;SDS011;501;48.214;11.350;2022-10-15T06:09:23;0.40;;;0.30;;
1024;SDS011;501;48.214;11.350;2022-10-15T06:11:49;0.70;;;0.70;;
1024;SDS011;501;48.214;11.350;2022-10-15T06:14:15;0.90;;;0.60;;
1024;SDS011;501;48.214;11.350;2022-10-15T06:16:40;1.63;;;0.50;;
1024;SDS011;501;48.214;11.350;2022-10-15T06:19:06;0.57;;;0.57;;
1024;SDS011;501;48.214;11.350;2022-10-15T06:21:31;1.70;;;0.60;;
1024;SDS011;501;48.214;11.350;2022-10-15T06:23:57;0.60;;;0.60;;
1024;SDS011;501;48.214;11.350;2022-10-15T06:26:23;0.77;;;0.60;;
1024;SDS011;501;48.214;11.350;2022-10-15T06:28:48;1.17;;;0.40;;
1024;SDS011;501;48.214;11.350;2022-10-15T06:31:14;1.40;;;0.53;;
1024;SDS011;501;48.214;11.350;2022-10-15T06:33:39;0.80;;;0.80;;
1024;SDS011;501;48.214;11.350;2022-10-15T06:36:08;1.50;;;0.90;;
1024;SDS011;501;48.214;11.350;2022-10-15T06:38:35;0.97;;;0.70;;
1024;SDS011;501;48.214;11.350;2022-10-15T06:41:07;1.23;;;0.50;;
1024;SDS011;501;48.214;11.350;2022-10-15T06:43:32;1.67;;;1.07;;
1024;SDS011;501;48.214;11.350;2022-10-15T06:45:58;1.23;;;0.80;;
1024;SDS011;501;48.214;11.350;2022-10-15T06:48:24;0.63;;;0.40;;
1024;SDS011;501;48.214;11.350;2022-10-15T06:50:50;1.40;;;0.70;;
1024;SDS011;501;48.214;11.350;2022-10-15T06:53:15;1.83;;;0.57;;
1024;SDS011;501;48.214;11.350;2022-10-15T06:55:41;1.73;;;1.00;;
1024;SDS011;501;48.214;11.350;2022-10-15T06:58:07;0.60;;;0.60;;
1024;SDS011;501;48.214;11.350;2022-10-15T07:00:33;0.40;;;0.30;;
1024;SDS011;501;48.214;11.350;2022-10-15T07:03:03;0.60;;;0.57;;
1024;SDS011;501;48.214;11.350;2022-10-15T07:05:29;0.50;;;0.40;;
1024;SDS011;501;48.214;11.350;2022-10-15T07:07:55;0.57;;;0.50;;
1024;SDS011;501;48.214;11.350;2022-10-15T07:10:22;0.40;;;0.30;;
1024;SDS011;501;48.214;11.350;2022-10-15T07:12:48;0.50;;;0.50;;
1024;SDS011;501;48.214;11.350;2022-10-15T07:15:14;0.50;;;0.50;;
1024;SDS011;501;48.214;11.350;2022-10-15T07:17:47;0.40;;;0.40;;
1024;SDS011;501;48.214;11.350;2022-10-15T07:20:17;1.20;;;0.70;;
1024;SDS011;501;48.214;11.350;2022-10-15T07:22:43;0.60;;;0.60;;
1024;SDS011;501;48.214;11.350;2022-10-15T07:25:09;0.90;;;0.70;;
1024;SDS011;501;48.214;11.350;2022-10-15T07:27:36;0.60;;;0.60;;
1024;SDS011;501;48.214;11.350;2022-10-15T07:30:02;0.60;;;0.50;;
1024;SDS011;501;48.214;11.350;2022-10-15T07:32:29;0.73;;;0.73;;
1024;SDS011;501;48.214;11.350;2022-10-15T07:34:54;0.60;;;0.60;;
1024;SDS011;501;48.214;11.350;2022-10-15T07:37:20;1.10;;;1.00;;
1024;SDS011;501;48.214;11.350;2022-10-15T07:39:45;0.77;;;0.77;;
1024;SDS011;501;48.214;11.350;2022-10-15T07:42:11;0.90;;;0.70;;
1024;SDS011;501;48.214;11.350;2022-10-15T07:44:37;0.63;;;0.40;;
1024;SDS011;501;48.214;11.350;2022-10-15T07:47:02;2.30;;;0.90;;
1024;SDS011;501;48.214;11.350;2022-10-15T07:49:28;1.03;;;0.93;;
1024;SDS011;501;48.214;11.350;2022-10-15T07:51:53;1.60;;;0.90;;
1024;SDS011;501;48.214;11.350;2022-10-15T07:54:19;0.73;;;0.60;;
1024;SDS011;501;48.214;11.350;2022-10-15T07:56:45;0.97;;;0.60;;
1024;SDS011;501;48.214;11.350;2022-10-15T07:59:10;0.60;;;0.50;;
1024;SDS011;501;48.214;11.350;2022-10-15T08:01:36;0.60;;;0.50;;
1024;SDS011;501;48.214;11.350;2022-10-15T08:04:01;1.50;;;0.57;;
1024;SDS011;501;48.214;11.350;2022-10-15T08:06:27;1.03;;;0.60;;
1024;SDS011;501;48.214;11.350;2022-10-15T08:08:53;0.70;;;0.50;;
1024;SDS011;501;48.214;11.350;2022-10-15T08:11:18;0.50;;;0.50;;
1024;SDS011;501;48.214;11.350;2022-10-15T08:13:44;0.40;;;0.40;;
1024;SDS011;501;48.214;11.350;2022-10-15T08:16:12;0.63;;;0.30;;
1024;SDS011;501;48.214;11.350;2022-10-15T08:18:39;0.60;;;0.40;;
1024;SDS011;501;48.214;11.350;2022-10-15T08:21:05;5.30;;;0.50;;
1024;SDS011;501;48.214;11.350;2022-10-15T08:23:32;0.47;;;0.40;;
1024;SDS011;501;48.214;11.350;2022-10-15T08:25:58;0.50;;;0.43;;
1024;SDS011;501;48.214;11.350;2022-10-15T08:28:25;0.80;;;0.40;;
1024;SDS011;501;48.214;11.350;2022-10-15T08:30:51;1.03;;;0.40;;
1024;SDS011;501;48.214;11.350;2022-10-15T08:33:17;0.40;;;0.30;;
1024;SDS011;501;48.214;11.350;2022-10-15T08:35:42;0.60;;;0.50;;
1024;SDS011;501;48.214;11.350;2022-10-15T08:38:11;0.53;;;0.37;;
1024;SDS011;501;48.214;11.350;2022-10-15T08:40:37;0.80;;;0.80;;
1024;SDS011;501;48.214;11.350;2022-10-15T08:43:10;0.60;;;0.60;;
1024;SDS011;501;48.214;11.350;2022-10-15T08:46:05;1.80;;;0.60;;
1024;SDS011;501;48.214;11.350;2022-10-15T08:48:41;1.50;;;0.50;;
1024;SDS011;501;48.214;11.350;2022-10-15T08:51:18;0.80;;;0.40;;
1024;SDS011;501;48.214;11.350;2022-10-15T08:53:47;0.40;;;0.37;;
1024;SDS011;501;48.214;11.350;2022-10-15T08:56:17;0.60;;;0.60;;
1024;SDS011;501;48.214;11.350;2022-10-15T08:59:16;0.40;;;0.30;;
1024;SDS011;501;48.214;11.350;2022-10-15T09:02:02;1.17;;;0.50;;
1024;SDS011;501;48.214;11.350;2022-10-15T09:08:03;0.40;;;0.30;;
1024;SDS011;501;48.214;11.350;2022-10-15T09:10:49;0.50;;;0.40;;
1024;SDS011;501;48.214;11.350;2022-10-15T09:13:25;2.40;;;0.50;;
1024;SDS011;501;48.214;11.350;2022-10-15T09:16:00;0.50;;;0.40;;
1024;SDS011;501;48.214;11.350;2022-10-15T09:18:32;0.67;;;0.40;;
1024;SDS011;501;48.214;11.350;2022-10-15T09:20:59;1.13;;;0.80;;
1024;SDS011;501;48.214;11.350;2022-10-15T09:23:28;0.93;;;0.50;;
1024;SDS011;501;48.214;11.350;2022-10-15T09:26:01;3.67;;;0.70;;
1024;SDS011;501;48.214;11.350;2022-10-15T09:28:42;4.20;;;0.60;;
1024;SDS011;501;48.214;11.350;2022-10-15T09:31:09;1.90;;;0.73;;
1024;SDS011;501;48.214;11.350;2022-10-15T09:33:40;2.67;;;0.73;;
1024;SDS011;501;48.214;11.350;2022-10-15T09:36:32;0.53;;;0.53;;
1024;SDS011;501;48.214;11.350;2022-10-15T09:44:38;0.73;;;0.50;;
1024;SDS011;501;48.214;11.350;2022-10-15T09:49:40;0.93;;;0.73;;
1024;SDS011;501;48.214;11.350;2022-10-15T09:54:39;1.17;;;0.70;;
1024;SDS011;501;48.214;11.350;2022-10-15T09:57:13;1.50;;;0.73;;
1024;SDS011;501;48.214;11.350;2022-10-15T09:59:54;1.90;;;0.80;;
1024;SDS011;501;48.214;11.350;2022-10-15T10:02:22;1.00;;;0.50;;
1024;SDS011;501;48.214;11.350;2022-10-15T10:04:49;1.00;;;0.80;;
1024;SDS011;501;48.214;11.350;2022-10-15T10:07:35;0.73;;;0.60;;
1024;SDS011;501;48.214;11.350;2022-10-15T10:10:06;0.80;;;0.60;;
1024;SDS011;501;48.214;11.350;2022-10-15T10:12:48;0.70;;;0.70;;
1024;SDS011;501;48.214;11.350;2022-10-15T10:17:59;1.40;;;0.60;;
1024;SDS011;501;48.214;11.350;2022-10-15T10:20:26;1.10;;;0.70;;
1024;SDS011;501;48.214;11.350;2022-10-15T10:22:54;0.57;;;0.43;;
1024;SDS011;501;48.214;11.350;2022-10-15T10:30:38;1.70;;;0.90;;
1024;SDS011;501;48.214;11.350;2022-10-15T10:33:14;2.10;;;0.80;;
1024;SDS011;501;48.214;11.350;2022-10-15T10:35:53;0.77;;;0.70;;
1024;SDS011;501;48.214;11.350;2022-10-15T10:38:26;0.73;;;0.60;;
1024;SDS011;501;48.214;11.350;2022-10-15T10:41:04;5.33;;;0.90;;
1024;SDS011;501;48.214;11.350;2022-10-15T10:43:51;1.30;;;0.33;;
1024;SDS011;501;48.214;11.350;2022-10-15T10:46:19;0.93;;;0.70;;
1024;SDS011;501;48.214;11.350;2022-10-15T10:48:48;1.10;;;0.70;;
1024;SDS011;501;48.214;11.350;2022-10-15T10:51:19;0.90;;;0.70;;
1024;SDS011;501;48.214;11.350;2022-10-15T10:53:54;0.77;;;0.70;;
1024;SDS011;501;48.214;11.350;2022-10-15T10:56:22;1.23;;;0.60;;
1024;SDS011;501;48.214;11.350;2022-10-15T10:58:54;3.53;;;0.80;;
1024;SDS011;501;48.214;11.350;2022-10-15T11:01:23;0.60;;;0.50;;
1024;SDS011;501;48.214;11.350;2022-10-15T11:03:49;0.40;;;0.33;;
1024;SDS011;501;48.214;11.350;2022-10-15T11:09:14;0.60;;;0.47;;
1024;SDS011;501;48.214;11.350;2022-10-15T11:20:15;2.00;;;0.70;;
1024;SDS011;501;48.214;11.350;2022-10-15T11:23:00;0.70;;;0.60;;
1024;SDS011;501;48.214;11.350;2022-10-15T11:25:36;3.60;;;0.60;;
1024;SDS011;501;48.214;11.350;2022-10-15T11:28:26;2.40;;;0.60;;
1024;SDS011;501;48.214;11.350;2022-10-15T11:34:10;1.87;;;0.50;;
1024;SDS011;501;48.214;11.350;2022-10-15T11:36:43;0.60;;;0.60;;
1024;SDS011;501;48.214;11.350;2022-10-15T11:47:56;2.33;;;0.70;;
1024;SDS011;501;48.214;11.350;2022-10-15T11:50:46;5.00;;;0.70;;
1024;SDS011;501;48.214;11.350;2022-10-15T11:58:44;1.20;;;0.60;;
1024;SDS011;501;48.214;11.350;2022-10-15T12:01:19;0.70;;;0.60;;
1024;SDS011;501;48.214;11.350;2022-10-15T12:03:55;1.57;;;0.47;;
1024;SDS011;501;48.214;11.350;2022-10-15T12:06:27;2.80;;;0.70;;
1024;SDS011;501;48.214;11.350;2022-10-15T12:09:01;0.60;;;0.60;;
1024;SDS011;501;48.214;11.350;2022-10-15T12:11:33;1.60;;;0.60;;
1024;SDS011;501;48.214;11.350;2022-10-15T12:16:53;6.87;;;0.80;;
1024;SDS011;501;48.214;11.350;2022-10-15T12:19:41;1.33;;;0.70;;
1024;SDS011;501;48.214;11.350;2022-10-15T12:22:30;0.47;;;0.47;;
1024;SDS011;501;48.214;11.350;2022-10-15T12:25:02;4.70;;;0.80;;
1024;SDS011;501;48.214;11.350;2022-10-15T12:27:32;2.43;;;0.80;;
1024;SDS011;501;48.214;11.350;2022-10-15T12:32:36;1.43;;;0.60;;
1024;SDS011;501;48.214;11.350;2022-10-15T12:37:39;3.03;;;0.80;;
1024;SDS011;501;48.214;11.350;2022-10-15T12:42:47;0.60;;;0.60;;
1024;SDS011;501;48.214;11.350;2022-10-15T12:45:23;2.57;;;1.00;;
1024;SDS011;501;48.214;11.350;2022-10-15T12:50:31;1.10;;;0.50;;
1024;SDS011;501;48.214;11.350;2022-10-15T12:52:59;1.80;;;0.60;;
1024;SDS011;501;48.214;11.350;2022-10-15T12:55:31;0.90;;;0.50;;
1024;SDS011;501;48.214;11.350;2022-10-15T13:01:48;1.33;;;1.10;;
1024;SDS011;501;48.214;11.350;2022-10-15T13:04:10;0.77;;;0.60;;
1024;SDS011;501;48.214;11.350;2022-10-15T13:06:36;1.00;;;0.60;;
1024;SDS011;501;48.214;11.350;2022-10-15T13:11:45;0.90;;;0.60;;
1024;SDS011;501;48.214;11.350;2022-10-15T13:16:44;0.60;;;0.60;;
1024;SDS011;501;48.214;11.350;2022-10-15T13:19:18;0.70;;;0.60;;
1024;SDS011;501;48.214;11.350;2022-10-15T13:22:17;3.60;;;0.83;;
1024;SDS011;501;48.214;11.350;2022-10-15T13:24:46;1.40;;;0.70;;
1024;SDS011;501;48.214;11.350;2022-10-15T13:27:13;1.43;;;0.80;;
1024;SDS011;501;48.214;11.350;2022-10-15T13:29:57;1.63;;;0.90;;
1024;SDS011;501;48.214;11.350;2022-10-15T13:32:25;1.30;;;0.70;;
1024;SDS011;501;48.214;11.350;2022-10-15T13:34:52;1.03;;;0.70;;
1024;SDS011;501;48.214;11.350;2022-10-15T13:37:22;1.17;;;0.77;;
1024;SDS011;501;48.214;11.350;2022-10-15T13:39:54;1.33;;;0.83;;
1024;SDS011;501;48.214;11.350;2022-10-15T13:42:21;0.77;;;0.73;;
1024;SDS011;501;48.214;11.350;2022-10-15T13:44:58;1.30;;;0.83;;
1024;SDS011;501;48.214;11.350;2022-10-15T13:47:45;1.93;;;0.67;;
1024;SDS011;501;48.214;11.350;2022-10-15T13:55:51;1.50;;;1.10;;
1024;SDS011;501;48.214;11.350;2022-10-15T13:58:34;0.80;;;0.70;;
1024;SDS011;501;48.214;11.350;2022-10-15T14:01:21;0.70;;;0.57;;
1024;SDS011;501;48.214;11.350;2022-10-15T14:03:54;3.60;;;0.90;;
1024;SDS011;501;48.214;11.350;2022-10-15T14:06:47;2.80;;;0.73;;
1024;SDS011;501;48.214;11.350;2022-10-15T14:09:20;0.67;;;0.67;;
1024;SDS011;501;48.214;11.350;2022-10-15T14:11:48;1.00;;;0.90;;
1024;SDS011;501;48.214;11.350;2022-10-15T14:14:34;1.90;;;0.73;;
1024;SDS011;501;48.214;11.350;2022-10-15T14:17:10;3.90;;;0.90;;
1024;SDS011;501;48.214;11.350;2022-10-15T14:19:44;1.50;;;1.40;;
1024;SDS011;501;48.214;11.350;2022-10-15T14:22:20;1.03;;;0.90;;
1024;SDS011;501;48.214;11.350;2022-10-15T14:24:49;1.83;;;0.93;;
1024;SDS011;501;48.214;11.350;2022-10-15T14:27:23;2.10;;;0.90;;
1024;SDS011;501;48.214;11.350;2022-10-15T14:29:51;1.37;;;1.00;;
1024;SDS011;501;48.214;11.350;2022-10-15T14:32:23;2.13;;;1.30;;
1024;SDS011;501;48.214;11.350;2022-10-15T14:34:51;1.73;;;1.30;;
1024;SDS011;501;48.214;11.350;2022-10-15T14:37:38;2.13;;;1.10;;
1024;SDS011;501;48.214;11.350;2022-10-15T14:45:29;1.80;;;1.00;;
1024;SDS011;501;48.214;11.350;2022-10-15T14:48:37;1.23;;;0.90;;
1024;SDS011;501;48.214;11.350;2022-10-15T14:51:00;2.50;;;1.10;;
1024;SDS011;501;48.214;11.350;2022-10-15T14:53:30;2.23;;;1.10;;
1024;SDS011;501;48.214;11.350;2022-10-15T14:56:01;2.57;;;1.17;;
1024;SDS011;501;48.214;11.350;2022-10-15T14:58:33;1.23;;;1.13;;
1024;SDS011;501;48.214;11.350;2022-10-15T15:01:02;1.50;;;1.40;;
1024;SDS011;501;48.214;11.350;2022-10-15T15:03:38;0.77;;;0.77;;
1024;SDS011;501;48.214;11.350;2022-10-15T15:06:07;1.10;;;0.90;;
1024;SDS011;501;48.214;11.350;2022-10-15T15:08:34;1.33;;;1.23;;
1024;SDS011;501;48.214;11.350;2022-10-15T15:11:00;1.50;;;0.80;;
1024;SDS011;501;48.214;11.350;2022-10-15T15:13:30;1.30;;;1.10;;
1024;SDS011;501;48.214;11.350;2022-10-15T15:16:02;3.10;;;0.80;;
1024;SDS011;501;48.214;11.350;2022-10-15T15:18:28;1.30;;;1.00;;
1024;SDS011;501;48.214;11.350;2022-10-15T15:20:53;1.60;;;1.20;;
1024;SDS011;501;48.214;11.350;2022-10-15T15:23:25;1.53;;;1.30;;
1024;SDS011;501;48.214;11.350;2022-10-15T15:25:55;3.47;;;1.47;;
1024;SDS011;501;48.214;11.350;2022-10-15T15:28:21;3.50;;;1.30;;
1024;SDS011;501;48.214;11.350;2022-10-15T15:30:50;2.20;;;1.60;;
1024;SDS011;501;48.214;11.350;2022-10-15T15:33:30;2.00;;;0.90;;
1024;SDS011;501;48.214;11.350;2022-10-15T15:38:31;1.90;;;0.93;;
1024;SDS011;501;48.214;11.350;2022-10-15T15:41:02;2.90;;;0.97;;
1024;SDS011;501;48.214;11.350;2022-10-15T15:43:35;1.57;;;1.20;;
1024;SDS011;501;48.214;11.350;2022-10-15T15:46:01;1.40;;;1.30;;
1024;SDS011;501;48.214;11.350;2022-10-15T15:48:26;1.40;;;1.30;;
1024;SDS011;501;48.214;11.350;2022-10-15T15:50:52;1.47;;;1.20;;
1024;SDS011;501;48.214;11.350;2022-10-15T15:53:18;1.67;;;1.27;;
1024;SDS011;501;48.214;11.350;2022-10-15T15:55:44;6.03;;;1.10;;
1024;SDS011;501;48.214;11.350;2022-10-15T15:58:09;1.60;;;1.50;;
1024;SDS011;501;48.214;11.350;2022-10-15T16:00:35;4.20;;;1.40;;
1024;SDS011;501;48.214;11.350;2022-10-15T16:03:00;1.60;;;1.17;;
1024;SDS011;501;48.214;11.350;2022-10-15T16:05:26;3.10;;;1.57;;
1024;SDS011;501;48.214;11.350;2022-10-15T16:07:52;2.30;;;2.07;;
1024;SDS011;501;48.214;11.350;2022-10-15T16:10:17;2.37;;;1.37;;
1024;SDS011;501;48.214;11.350;2022-10-15T16:12:43;4.53;;;2.17;;
1024;SDS011;501;48.214;11.350;2022-10-15T16:15:09;1.50;;;1.40;;
1024;SDS011;501;48.214;11.350;2022-10-15T16:17:35;1.67;;;1.57;;
1024;SDS011;501;48.214;11.350;2022-10-15T16:20:01;3.30;;;2.00;;
1024;SDS011;501;48.214;11.350;2022-10-15T16:22:27;3.57;;;2.40;;
1024;SDS011;501;48.214;11.350;2022-10-15T16:24:52;3.80;;;2.30;;
1024;SDS011;501;48.214;11.350;2022-10-15T16:27:19;3.53;;;2.80;;
1024;SDS011;501;48.214;11.350;2022-10-15T16:29:45;3.23;;;2.80;;
1024;SDS011;501;48.214;11.350;2022-10-15T16:32:10;3.37;;;2.57;;
1024;SDS011;501;48.214;11.350;2022-10-15T16:34:36;4.33;;;2.27;;
1024;SDS011;501;48.214;11.350;2022-10-15T16:37:02;8.10;;;2.00;;
1024;SDS011;501;48.214;11.350;2022-10-15T16:39:28;3.70;;;1.77;;
1024;SDS011;501;48.214;11.350;2022-10-15T16:41:53;1.30;;;1.20;;
1024;SDS011;501;48.214;11.350;2022-10-15T16:44:22;2.10;;;1.90;;
1024;SDS011;501;48.214;11.350;2022-10-15T16:46:48;3.40;;;1.70;;
1024;SDS011;501;48.214;11.350;2022-10-15T16:49:14;1.50;;;1.40;;
1024;SDS011;501;48.214;11.350;2022-10-15T16:51:39;3.30;;;1.43;;
1024;SDS011;501;48.214;11.350;2022-10-15T16:54:05;1.77;;;1.47;;
1024;SDS011;501;48.214;11.350;2022-10-15T16:56:30;2.63;;;1.50;;
1024;SDS011;501;48.214;11.350;2022-10-15T16:58:56;4.10;;;1.03;;
1024;SDS011;501;48.214;11.350;2022-10-15T17:01:23;2.93;;;1.30;;
1024;SDS011;501;48.214;11.350;2022-10-15T17:03:50;2.00;;;1.33;;
1024;SDS011;501;48.214;11.350;2022-10-15T17:06:19;1.20;;;1.10;;
1024;SDS011;501;48.214;11.350;2022-10-15T17:08:49;1.53;;;1.43;;
1024;SDS011;501;48.214;11.350;2022-10-15T17:11:29;2.50;;;2.10;;
1024;SDS011;501;48.214;11.350;2022-10-15T17:13:57;3.50;;;1.73;;
1024;SDS011;501;48.214;11.350;2022-10-15T17:16:31;1.83;;;1.63;;
1024;SDS011;501;48.214;11.350;2022-10-15T17:19:00;2.40;;;2.20;;
1024;SDS011;501;48.214;11.350;2022-10-15T17:21:26;4.17;;;2.03;;
1024;SDS011;501;48.214;11.350;2022-10-15T17:23:54;2.00;;;1.80;;
1024;SDS011;501;48.214;11.350;2022-10-15T17:26:22;5.20;;;2.10;;
1024;SDS011;501;48.214;11.350;2022-10-15T17:28:50;4.13;;;2.40;;
1024;SDS011;501;48.214;11.350;2022-10-15T17:31:17;2.90;;;1.93;;
1024;SDS011;501;48.214;11.350;2022-10-15T17:33:44;3.40;;;1.80;;